sensor_id;sensor_type;location;lat;lon;timestamp;P1;durP1;ratioP1;P2;durP2;ratioP2
9900;SDS011;4989;48.772;9.154;2023-07-13T00:03:06;392.67;;;267.50;;
9900;SDS011;4989;48.772;9.154;2023-07-13T00:08:09;393.10;;;264.63;;
9900;SDS011;4989;48.772;9.154;2023-07-13T00:13:13;411.50;;;306.20;;
9900;SDS011;4989;48.772;9.154;2023-07-13T00:18:15;434.50;;;360.00;;
9900;SDS011;4989;48.772;9.154;2023-07-13T00:23:18;433.83;;;357.23;;
9900;SDS011;4989;48.772;9.154;2023-07-13T00:28:20;437.23;;;363.17;;
9900;SDS011;4989;48.772;9.154;2023-07-13T00:33:23;437.53;;;363.87;;
9900;SDS011;4989;48.772;9.154;2023-07-13T00:38:26;437.57;;;372.23;;
9900;SDS011;4989;48.772;9.154;2023-07-13T00:43:29;422.03;;;336.30;;
9900;SDS011;4989;48.772;9.154;2023-07-13T00:48:33;398.67;;;277.53;;
9900;SDS011;4989;48.772;9.154;2023-07-13T00:53:37;389.00;;;254.27;;
9900;SDS011;4989;48.772;9.154;2023-07-13T00:58:41;395.07;;;261.20;;
9900;SDS011;4989;48.772;9.154;2023-07-13T01:03:44;422.07;;;315.67;;
9900;SDS011;4989;48.772;9.154;2023-07-13T01:08:48;431.87;;;335.07;;
9900;SDS011;4989;48.772;9.154;2023-07-13T01:13:50;432.73;;;337.70;;
9900;SDS011;4989;48.772;9.154;2023-07-13T01:18:54;431.97;;;336.83;;
9900;SDS011;4989;48.772;9.154;2023-07-13T01:24:00;403.27;;;274.33;;
9900;SDS011;4989;48.772;9.154;2023-07-13T01:29:03;388.23;;;244.13;;
9900;SDS011;4989;48.772;9.154;2023-07-13T01:34:06;392.37;;;240.30;;
9900;SDS011;4989;48.772;9.154;2023-07-13T01:39:11;390.83;;;238.50;;
9900;SDS011;4989;48.772;9.154;2023-07-13T01:44:14;410.10;;;270.43;;
9900;SDS011;4989;48.772;9.154;2023-07-13T01:49:16;424.63;;;299.37;;
9900;SDS011;4989;48.772;9.154;2023-07-13T01:54:19;425.93;;;298.53;;
9900;SDS011;4989;48.772;9.154;2023-07-13T01:59:21;427.00;;;304.93;;
9900;SDS011;4989;48.772;9.154;2023-07-13T02:04:24;425.60;;;292.90;;
9900;SDS011;4989;48.772;9.154;2023-07-13T02:09:27;423.60;;;292.73;;
9900;SDS011;4989;48.772;9.154;2023-07-13T02:14:29;405.80;;;252.67;;
9900;SDS011;4989;48.772;9.154;2023-07-13T02:19:32;383.87;;;205.30;;
9900;SDS011;4989;48.772;9.154;2023-07-13T02:24:34;381.73;;;198.93;;
9900;SDS011;4989;48.772;9.154;2023-07-13T02:29:37;383.83;;;198.77;;
9900;SDS011;4989;48.772;9.154;2023-07-13T02:34:40;382.67;;;199.20;;
9900;SDS011;4989;48.772;9.154;2023-07-13T02:39:43;405.13;;;243.73;;
9900;SDS011;4989;48.772;9.154;2023-07-13T02:44:46;419.83;;;276.10;;
9900;SDS011;4989;48.772;9.154;2023-07-13T02:49:49;415.80;;;267.40;;
9900;SDS011;4989;48.772;9.154;2023-07-13T02:54:52;419.40;;;271.13;;
9900;SDS011;4989;48.772;9.154;2023-07-13T02:59:55;424.50;;;293.50;;
9900;SDS011;4989;48.772;9.154;2023-07-13T03:04:58;419.67;;;287.30;;
9900;SDS011;4989;48.772;9.154;2023-07-13T03:10:00;391.47;;;222.77;;
9900;SDS011;4989;48.772;9.154;2023-07-13T03:15:13;405.20;;;260.70;;
9900;SDS011;4989;48.772;9.154;2023-07-13T03:20:18;427.77;;;315.30;;
9900;SDS011;4989;48.772;9.154;2023-07-13T03:25:21;426.27;;;309.97;;
9900;SDS011;4989;48.772;9.154;2023-07-13T03:30:24;427.47;;;322.17;;
9900;SDS011;4989;48.772;9.154;2023-07-13T03:35:28;435.63;;;336.63;;
9900;SDS011;4989;48.772;9.154;2023-07-13T03:40:30;400.47;;;265.10;;
9900;SDS011;4989;48.772;9.154;2023-07-13T03:45:33;384.20;;;234.10;;
9900;SDS011;4989;48.772;9.154;2023-07-13T03:50:36;384.97;;;228.70;;
9900;SDS011;4989;48.772;9.154;2023-07-13T03:55:40;388.17;;;241.83;;
9900;SDS011;4989;48.772;9.154;2023-07-13T04:00:42;398.70;;;266.57;;
9900;SDS011;4989;48.772;9.154;2023-07-13T04:05:48;427.77;;;333.03;;
9900;SDS011;4989;48.772;9.154;2023-07-13T04:10:51;432.93;;;334.00;;
9900;SDS011;4989;48.772;9.154;2023-07-13T04:15:53;433.03;;;336.33;;
9900;SDS011;4989;48.772;9.154;2023-07-13T04:20:57;433.80;;;351.43;;
9900;SDS011;4989;48.772;9.154;2023-07-13T04:25:59;417.80;;;303.23;;
9900;SDS011;4989;48.772;9.154;2023-07-13T04:31:02;395.20;;;241.67;;
9900;SDS011;4989;48.772;9.154;2023-07-13T04:36:05;384.90;;;225.63;;
9900;SDS011;4989;48.772;9.154;2023-07-13T04:41:09;385.07;;;222.30;;
9900;SDS011;4989;48.772;9.154;2023-07-13T04:46:13;386.73;;;227.93;;
9900;SDS011;4989;48.772;9.154;2023-07-13T04:51:17;422.33;;;295.60;;
9900;SDS011;4989;48.772;9.154;2023-07-13T04:56:20;426.07;;;312.40;;
9900;SDS011;4989;48.772;9.154;2023-07-13T05:01:22;427.77;;;310.30;;
9900;SDS011;4989;48.772;9.154;2023-07-13T05:06:25;422.90;;;304.37;;
9900;SDS011;4989;48.772;9.154;2023-07-13T05:11:28;426.97;;;310.23;;
9900;SDS011;4989;48.772;9.154;2023-07-13T05:16:31;399.43;;;241.73;;
9900;SDS011;4989;48.772;9.154;2023-07-13T05:21:34;388.07;;;221.50;;
9900;SDS011;4989;48.772;9.154;2023-07-13T05:26:37;387.17;;;232.33;;
9900;SDS011;4989;48.772;9.154;2023-07-13T05:31:39;386.63;;;227.27;;
9900;SDS011;4989;48.772;9.154;2023-07-13T05:36:42;390.50;;;242.73;;
9900;SDS011;4989;48.772;9.154;2023-07-13T05:41:45;420.63;;;315.57;;
9900;SDS011;4989;48.772;9.154;2023-07-13T05:46:48;429.97;;;334.40;;
9900;SDS011;4989;48.772;9.154;2023-07-13T05:51:50;426.80;;;324.83;;
9900;SDS011;4989;48.772;9.154;2023-07-13T05:56:53;427.67;;;325.37;;
9900;SDS011;4989;48.772;9.154;2023-07-13T06:01:55;424.47;;;316.63;;
9900;SDS011;4989;48.772;9.154;2023-07-13T06:06:58;432.13;;;329.13;;
9900;SDS011;4989;48.772;9.154;2023-07-13T06:12:01;399.80;;;251.43;;
9900;SDS011;4989;48.772;9.154;2023-07-13T06:17:04;380.03;;;202.33;;
9900;SDS011;4989;48.772;9.154;2023-07-13T06:22:07;381.80;;;205.13;;
9900;SDS011;4989;48.772;9.154;2023-07-13T06:27:11;381.17;;;202.50;;
9900;SDS011;4989;48.772;9.154;2023-07-13T06:32:14;402.50;;;242.77;;
9900;SDS011;4989;48.772;9.154;2023-07-13T06:37:17;423.00;;;294.27;;
9900;SDS011;4989;48.772;9.154;2023-07-13T06:42:22;426.37;;;314.57;;
9900;SDS011;4989;48.772;9.154;2023-07-13T06:47:25;425.20;;;312.30;;
9900;SDS011;4989;48.772;9.154;2023-07-13T06:52:28;428.43;;;328.17;;
9900;SDS011;4989;48.772;9.154;2023-07-13T06:57:30;403.33;;;272.13;;
9900;SDS011;4989;48.772;9.154;2023-07-13T07:02:33;384.73;;;230.37;;
9900;SDS011;4989;48.772;9.154;2023-07-13T07:07:36;392.20;;;242.93;;
9900;SDS011;4989;48.772;9.154;2023-07-13T07:12:38;387.40;;;241.00;;
9900;SDS011;4989;48.772;9.154;2023-07-13T07:17:41;387.70;;;248.83;;
9900;SDS011;4989;48.772;9.154;2023-07-13T07:22:45;415.67;;;312.77;;
9900;SDS011;4989;48.772;9.154;2023-07-13T07:27:51;426.67;;;332.37;;
9900;SDS011;4989;48.772;9.154;2023-07-13T07:32:56;430.57;;;340.30;;
9900;SDS011;4989;48.772;9.154;2023-07-13T07:38:01;398.93;;;262.73;;
9900;SDS011;4989;48.772;9.154;2023-07-13T07:43:06;386.50;;;249.33;;
9900;SDS011;4989;48.772;9.154;2023-07-13T07:48:10;388.60;;;260.33;;
9900;SDS011;4989;48.772;9.154;2023-07-13T07:53:14;408.10;;;313.30;;
9900;SDS011;4989;48.772;9.154;2023-07-13T07:58:21;426.20;;;340.07;;
9900;SDS011;4989;48.772;9.154;2023-07-13T08:03:27;430.97;;;361.77;;
9900;SDS011;4989;48.772;9.154;2023-07-13T08:08:50;428.40;;;360.00;;
9900;SDS011;4989;48.772;9.154;2023-07-13T08:13:52;433.67;;;373.40;;
9900;SDS011;4989;48.772;9.154;2023-07-13T08:18:56;436.37;;;387.13;;
9900;SDS011;4989;48.772;9.154;2023-07-13T08:23:59;433.73;;;385.30;;
9900;SDS011;4989;48.772;9.154;2023-07-13T08:29:02;404.67;;;322.17;;
9900;SDS011;4989;48.772;9.154;2023-07-13T08:34:07;393.60;;;306.53;;
9900;SDS011;4989;48.772;9.154;2023-07-13T08:39:09;400.03;;;339.80;;
9900;SDS011;4989;48.772;9.154;2023-07-13T08:44:17;399.93;;;340.63;;
9900;SDS011;4989;48.772;9.154;2023-07-13T08:49:32;397.50;;;325.77;;
9900;SDS011;4989;48.772;9.154;2023-07-13T08:54:37;401.63;;;348.40;;
9900;SDS011;4989;48.772;9.154;2023-07-13T08:59:45;461.80;;;413.73;;
9900;SDS011;4989;48.772;9.154;2023-07-13T09:10:29;404.70;;;351.90;;
9900;SDS011;4989;48.772;9.154;2023-07-13T09:15:43;403.93;;;352.93;;
9900;SDS011;4989;48.772;9.154;2023-07-13T09:20:53;473.90;;;425.20;;
9900;SDS011;4989;48.772;9.154;2023-07-13T09:26:23;414.47;;;368.77;;
9900;SDS011;4989;48.772;9.154;2023-07-13T09:31:34;474.07;;;425.40;;
9900;SDS011;4989;48.772;9.154;2023-07-13T09:36:43;437.73;;;391.57;;
9900;SDS011;4989;48.772;9.154;2023-07-13T09:47:32;421.07;;;374.50;;
9900;SDS011;4989;48.772;9.154;2023-07-13T09:57:48;503.90;;;455.13;;
9900;SDS011;4989;48.772;9.154;2023-07-13T10:13:31;500.77;;;452.23;;
9900;SDS011;4989;48.772;9.154;2023-07-13T10:23:51;497.87;;;449.20;;
9900;SDS011;4989;48.772;9.154;2023-07-13T10:29:02;455.47;;;408.67;;
9900;SDS011;4989;48.772;9.154;2023-07-13T10:34:11;430.63;;;385.50;;
9900;SDS011;4989;48.772;9.154;2023-07-13T10:39:16;478.37;;;430.67;;
9900;SDS011;4989;48.772;9.154;2023-07-13T10:44:22;502.50;;;453.70;;
9900;SDS011;4989;48.772;9.154;2023-07-13T10:49:30;478.57;;;430.83;;
9900;SDS011;4989;48.772;9.154;2023-07-13T10:54:36;410.13;;;365.30;;
9900;SDS011;4989;48.772;9.154;2023-07-13T11:00:30;440.50;;;394.10;;
9900;SDS011;4989;48.772;9.154;2023-07-13T11:11:04;465.10;;;417.43;;
9900;SDS011;4989;48.772;9.154;2023-07-13T11:15:59;485.93;;;437.53;;
9900;SDS011;4989;48.772;9.154;2023-07-13T11:21:14;434.23;;;388.00;;
9900;SDS011;4989;48.772;9.154;2023-07-13T11:26:42;451.30;;;404.87;;
9900;SDS011;4989;48.772;9.154;2023-07-13T11:31:52;515.43;;;466.20;;
9900;SDS011;4989;48.772;9.154;2023-07-13T11:36:59;537.40;;;487.80;;
9900;SDS011;4989;48.772;9.154;2023-07-13T11:42:09;444.63;;;399.70;;
9900;SDS011;4989;48.772;9.154;2023-07-13T11:47:19;534.13;;;485.17;;
9900;SDS011;4989;48.772;9.154;2023-07-13T11:52:31;546.23;;;496.90;;
9900;SDS011;4989;48.772;9.154;2023-07-13T11:57:40;466.47;;;421.47;;
9900;SDS011;4989;48.772;9.154;2023-07-13T12:02:59;560.77;;;511.07;;
9900;SDS011;4989;48.772;9.154;2023-07-13T12:08:09;467.70;;;422.30;;
9900;SDS011;4989;48.772;9.154;2023-07-13T12:13:23;546.50;;;497.07;;
9900;SDS011;4989;48.772;9.154;2023-07-13T12:18:30;524.07;;;476.03;;
9900;SDS011;4989;48.772;9.154;2023-07-13T12:23:35;468.80;;;423.27;;
9900;SDS011;4989;48.772;9.154;2023-07-13T12:33:57;554.47;;;504.97;;
9900;SDS011;4989;48.772;9.154;2023-07-13T12:39:21;535.70;;;486.90;;
9900;SDS011;4989;48.772;9.154;2023-07-13T12:45:34;557.73;;;508.13;;
9900;SDS011;4989;48.772;9.154;2023-07-13T12:50:29;568.67;;;518.83;;
9900;SDS011;4989;48.772;9.154;2023-07-13T12:55:44;517.53;;;470.73;;
9900;SDS011;4989;48.772;9.154;2023-07-13T13:00:51;575.40;;;525.43;;
9900;SDS011;4989;48.772;9.154;2023-07-13T13:11:11;509.20;;;463.37;;
9900;SDS011;4989;48.772;9.154;2023-07-13T13:16:29;569.97;;;520.47;;
9900;SDS011;4989;48.772;9.154;2023-07-13T13:21:39;482.60;;;437.13;;
9900;SDS011;4989;48.772;9.154;2023-07-13T13:26:41;481.90;;;436.30;;
9900;SDS011;4989;48.772;9.154;2023-07-13T13:31:45;523.83;;;475.70;;
9900;SDS011;4989;48.772;9.154;2023-07-13T13:36:50;565.27;;;515.47;;
9900;SDS011;4989;48.772;9.154;2023-07-13T13:41:57;566.07;;;516.03;;
9900;SDS011;4989;48.772;9.154;2023-07-13T13:47:00;544.93;;;495.97;;
9900;SDS011;4989;48.772;9.154;2023-07-13T13:52:08;487.17;;;441.70;;
9900;SDS011;4989;48.772;9.154;2023-07-13T13:57:12;482.83;;;437.03;;
9900;SDS011;4989;48.772;9.154;2023-07-13T14:02:32;501.63;;;454.80;;
9900;SDS011;4989;48.772;9.154;2023-07-13T14:07:35;508.57;;;461.77;;
9900;SDS011;4989;48.772;9.154;2023-07-13T14:12:37;479.20;;;433.93;;
9900;SDS011;4989;48.772;9.154;2023-07-13T14:17:41;487.00;;;441.00;;
9900;SDS011;4989;48.772;9.154;2023-07-13T14:22:45;534.67;;;486.30;;
9900;SDS011;4989;48.772;9.154;2023-07-13T14:27:49;541.67;;;492.67;;
9900;SDS011;4989;48.772;9.154;2023-07-13T14:33:00;539.60;;;491.23;;
9900;SDS011;4989;48.772;9.154;2023-07-13T14:38:02;493.13;;;446.70;;
9900;SDS011;4989;48.772;9.154;2023-07-13T14:43:11;471.43;;;426.13;;
9900;SDS011;4989;48.772;9.154;2023-07-13T14:48:17;534.90;;;486.30;;
9900;SDS011;4989;48.772;9.154;2023-07-13T14:53:27;547.63;;;498.03;;
9900;SDS011;4989;48.772;9.154;2023-07-13T14:58:29;552.73;;;503.17;;
9900;SDS011;4989;48.772;9.154;2023-07-13T15:03:33;458.80;;;413.33;;
9900;SDS011;4989;48.772;9.154;2023-07-13T15:08:42;460.67;;;415.00;;
9900;SDS011;4989;48.772;9.154;2023-07-13T15:13:47;520.70;;;471.90;;
9900;SDS011;4989;48.772;9.154;2023-07-13T15:18:50;544.60;;;494.00;;
9900;SDS011;4989;48.772;9.154;2023-07-13T15:23:56;541.30;;;491.07;;
9900;SDS011;4989;48.772;9.154;2023-07-13T15:28:58;534.87;;;483.07;;
9900;SDS011;4989;48.772;9.154;2023-07-13T15:34:00;523.30;;;474.00;;
9900;SDS011;4989;48.772;9.154;2023-07-13T15:39:02;451.07;;;405.37;;
9900;SDS011;4989;48.772;9.154;2023-07-13T15:44:12;444.67;;;399.53;;
9900;SDS011;4989;48.772;9.154;2023-07-13T15:55:13;457.97;;;412.03;;
9900;SDS011;4989;48.772;9.154;2023-07-13T16:05:26;504.27;;;455.40;;
9900;SDS011;4989;48.772;9.154;2023-07-13T16:10:30;522.13;;;472.57;;
9900;SDS011;4989;48.772;9.154;2023-07-13T16:15:39;417.47;;;372.43;;
9900;SDS011;4989;48.772;9.154;2023-07-13T16:20:46;501.20;;;452.07;;
9900;SDS011;4989;48.772;9.154;2023-07-13T16:25:50;503.97;;;454.60;;
9900;SDS011;4989;48.772;9.154;2023-07-13T16:30:53;498.90;;;449.57;;
9900;SDS011;4989;48.772;9.154;2023-07-13T16:35:55;514.97;;;464.10;;
9900;SDS011;4989;48.772;9.154;2023-07-13T16:40:58;512.13;;;462.53;;
9900;SDS011;4989;48.772;9.154;2023-07-13T16:46:01;469.30;;;421.77;;
9900;SDS011;4989;48.772;9.154;2023-07-13T16:51:06;418.43;;;373.27;;
9900;SDS011;4989;48.772;9.154;2023-07-13T16:56:16;465.97;;;398.77;;
9900;SDS011;4989;48.772;9.154;2023-07-13T17:01:21;487.23;;;438.57;;
9900;SDS011;4989;48.772;9.154;2023-07-13T17:06:24;495.17;;;446.10;;
9900;SDS011;4989;48.772;9.154;2023-07-13T17:11:26;489.27;;;440.43;;
9900;SDS011;4989;48.772;9.154;2023-07-13T17:16:31;431.43;;;384.77;;
9900;SDS011;4989;48.772;9.154;2023-07-13T17:21:34;410.90;;;365.83;;
9900;SDS011;4989;48.772;9.154;2023-07-13T17:26:36;406.13;;;360.87;;
9900;SDS011;4989;48.772;9.154;2023-07-13T17:31:42;402.50;;;356.13;;
9900;SDS011;4989;48.772;9.154;2023-07-13T17:36:46;474.67;;;426.20;;
9900;SDS011;4989;48.772;9.154;2023-07-13T17:41:49;480.57;;;431.80;;
9900;SDS011;4989;48.772;9.154;2023-07-13T17:46:52;500.60;;;450.80;;
9900;SDS011;4989;48.772;9.154;2023-07-13T17:51:57;486.03;;;436.83;;
9900;SDS011;4989;48.772;9.154;2023-07-13T17:57:05;403.50;;;352.80;;
9900;SDS011;4989;48.772;9.154;2023-07-13T18:02:14;408.43;;;361.83;;
9900;SDS011;4989;48.772;9.154;2023-07-13T18:07:23;487.60;;;436.97;;
9900;SDS011;4989;48.772;9.154;2023-07-13T18:12:29;487.47;;;437.37;;
9900;SDS011;4989;48.772;9.154;2023-07-13T18:17:34;418.57;;;360.47;;
9900;SDS011;4989;48.772;9.154;2023-07-13T18:22:36;400.97;;;350.53;;
9900;SDS011;4989;48.772;9.154;2023-07-13T18:27:39;401.07;;;347.10;;
9900;SDS011;4989;48.772;9.154;2023-07-13T18:32:42;402.53;;;346.63;;
9900;SDS011;4989;48.772;9.154;2023-07-13T18:37:54;477.90;;;428.93;;
9900;SDS011;4989;48.772;9.154;2023-07-13T18:42:58;483.60;;;434.30;;
9900;SDS011;4989;48.772;9.154;2023-07-13T18:48:01;437.70;;;390.83;;
9900;SDS011;4989;48.772;9.154;2023-07-13T18:53:04;403.70;;;349.80;;
9900;SDS011;4989;48.772;9.154;2023-07-13T18:58:06;399.90;;;343.17;;
9900;SDS011;4989;48.772;9.154;2023-07-13T19:03:13;396.93;;;337.13;;
9900;SDS011;4989;48.772;9.154;2023-07-13T19:08:21;486.53;;;437.13;;
9900;SDS011;4989;48.772;9.154;2023-07-13T19:13:26;487.53;;;438.00;;
9900;SDS011;4989;48.772;9.154;2023-07-13T19:18:31;432.73;;;386.03;;
9900;SDS011;4989;48.772;9.154;2023-07-13T19:28:46;436.37;;;389.53;;
9900;SDS011;4989;48.772;9.154;2023-07-13T19:33:54;485.27;;;436.10;;
9900;SDS011;4989;48.772;9.154;2023-07-13T19:38:56;474.73;;;424.87;;
9900;SDS011;4989;48.772;9.154;2023-07-13T19:43:59;469.63;;;420.77;;
9900;SDS011;4989;48.772;9.154;2023-07-13T19:49:02;427.27;;;380.33;;
9900;SDS011;4989;48.772;9.154;2023-07-13T19:54:11;397.37;;;313.40;;
9900;SDS011;4989;48.772;9.154;2023-07-13T20:04:24;459.43;;;410.70;;
9900;SDS011;4989;48.772;9.154;2023-07-13T20:09:27;456.50;;;407.93;;
9900;SDS011;4989;48.772;9.154;2023-07-13T20:14:44;407.07;;;343.80;;
9900;SDS011;4989;48.772;9.154;2023-07-13T20:19:50;463.77;;;414.97;;
9900;SDS011;4989;48.772;9.154;2023-07-13T20:25:00;449.67;;;401.10;;
9900;SDS011;4989;48.772;9.154;2023-07-13T20:30:02;409.80;;;352.33;;
9900;SDS011;4989;48.772;9.154;2023-07-13T20:35:21;396.23;;;319.77;;
9900;SDS011;4989;48.772;9.154;2023-07-13T20:40:28;459.73;;;411.03;;
9900;SDS011;4989;48.772;9.154;2023-07-13T20:45:33;414.37;;;344.90;;
9900;SDS011;4989;48.772;9.154;2023-07-13T20:50:37;400.17;;;327.23;;
9900;SDS011;4989;48.772;9.154;2023-07-13T20:55:42;401.50;;;331.43;;
9900;SDS011;4989;48.772;9.154;2023-07-13T21:00:45;420.97;;;367.27;;
9900;SDS011;4989;48.772;9.154;2023-07-13T21:05:48;449.80;;;400.80;;
9900;SDS011;4989;48.772;9.154;2023-07-13T21:10:51;461.07;;;412.10;;
9900;SDS011;4989;48.772;9.154;2023-07-13T21:15:54;451.60;;;402.77;;
9900;SDS011;4989;48.772;9.154;2023-07-13T21:20:59;456.03;;;407.27;;
9900;SDS011;4989;48.772;9.154;2023-07-13T21:26:02;412.03;;;342.57;;
9900;SDS011;4989;48.772;9.154;2023-07-13T21:31:08;397.50;;;313.83;;
9900;SDS011;4989;48.772;9.154;2023-07-13T21:36:13;401.97;;;321.83;;
9900;SDS011;4989;48.772;9.154;2023-07-13T21:41:30;428.30;;;374.10;;
9900;SDS011;4989;48.772;9.154;2023-07-13T21:46:34;397.67;;;308.87;;
9900;SDS011;4989;48.772;9.154;2023-07-13T21:51:37;395.50;;;302.80;;
9900;SDS011;4989;48.772;9.154;2023-07-13T21:56:39;394.73;;;298.33;;
9900;SDS011;4989;48.772;9.154;2023-07-13T22:01:45;415.93;;;336.07;;
9900;SDS011;4989;48.772;9.154;2023-07-13T22:06:48;437.07;;;383.90;;
9900;SDS011;4989;48.772;9.154;2023-07-13T22:11:52;433.73;;;373.63;;
9900;SDS011;4989;48.772;9.154;2023-07-13T22:16:55;438.83;;;383.97;;
9900;SDS011;4989;48.772;9.154;2023-07-13T22:21:58;441.23;;;391.50;;
9900;SDS011;4989;48.772;9.154;2023-07-13T22:27:00;436.07;;;376.20;;
9900;SDS011;4989;48.772;9.154;2023-07-13T22:32:03;405.53;;;313.07;;
9900;SDS011;4989;48.772;9.154;2023-07-13T22:37:07;391.43;;;284.83;;
9900;SDS011;4989;48.772;9.154;2023-07-13T22:42:10;394.07;;;294.73;;
9900;SDS011;4989;48.772;9.154;2023-07-13T22:47:14;399.93;;;309.07;;
9900;SDS011;4989;48.772;9.154;2023-07-13T22:52:20;435.70;;;380.40;;
9900;SDS011;4989;48.772;9.154;2023-07-13T22:57:24;440.17;;;385.30;;
9900;SDS011;4989;48.772;9.154;2023-07-13T23:02:26;443.53;;;392.20;;
9900;SDS011;4989;48.772;9.154;2023-07-13T23:07:29;437.93;;;382.20;;
9900;SDS011;4989;48.772;9.154;2023-07-13T23:12:32;408.13;;;317.37;;
9900;SDS011;4989;48.772;9.154;2023-07-13T23:17:35;401.63;;;285.87;;
9900;SDS011;4989;48.772;9.154;2023-07-13T23:22:39;392.83;;;289.10;;
9900;SDS011;4989;48.772;9.154;2023-07-13T23:27:42;394.40;;;289.60;;
9900;SDS011;4989;48.772;9.154;2023-07-13T23:32:45;407.63;;;314.53;;
9900;SDS011;4989;48.772;9.154;2023-07-13T23:37:49;431.70;;;364.13;;
9900;SDS011;4989;48.772;9.154;2023-07-13T23:42:52;433.13;;;365.57;;
9900;SDS011;4989;48.772;9.154;2023-07-13T23:47:55;430.63;;;358.53;;
9900;SDS011;4989;48.772;9.154;2023-07-13T23:52:59;439.00;;;379.20;;
9900;SDS011;4989;48.772;9.154;2023-07-13T23:58:03;403.63;;;299.17;;
